KSCD

Merkel Field Sylacauga Municipal Airport

Sylacauga, Alabama, USA
METAR KSCD 181435Z AUTO 00000KT 10SM BKN013 OVC021 26/24 A3010 RMK AO2 T02600244
Observed Flight Rules
Aug-18 @ 14:35 UTC (18 minutes ago) Marginal Visual Flight Rules
Visibility Clouds
10 miles
  • Broken at 1,300' AGL
  • Overcast at 2,100' AGL
Temperatures Readings
Current 26°C / 79°F
Dewpoint 24°C / 75°F
Humidity 89%
Altimeter 30.1" Hg
Pressure 1019 hPa
Elevation 173
METAR KSCD 181435Z AUTO 00000KT 10SM BKN013 OVC021 26/24 A3010 RMK AO2 T02600244
Observed Flight Rules
Aug-18 @ 14:35 UTC
(18 minutes ago)
MVFR
Clouds
  • Broken at 1,300' AGL
  • Overcast at 2,100' AGL
Temperature Dewpoint
26°C / 79°F 24°C / 75°F
Humidity Altimeter Pressure
89% 30.1" Hg 1019 hPa